Time;durP1;ratioP1;P1;durP2;ratioP2;P2;SDS_P1;SDS_P2;PMS_P1;PMS_P2;Temp;Humidity;BMP_temperature;BMP_pressure;BME280_temperature;BME280_humidity;BME280_pressure;Samples;Min_cycle;Max_cycle;Signal;HPM_P1;HPM_P2
2023/01/17 00:00:10;;;;;;;10.85;5.47;;;;;;;-148.88;100.00;74097.78;5078481;28;20025;-81
2023/01/17 00:02:35;;;;;;;13.38;6.35;;;;;;;-148.88;100.00;74099.78;5078776;28;20123;-83
2023/01/17 00:10:29;;;;;;;9.48;4.53;;;;;;;-148.88;100.00;74120.09;5066038;28;19958;-82
2023/01/17 00:12:57;;;;;;;11.57;5.28;;;;;;;-148.88;100.00;74128.22;5081202;28;20092;-81
2023/01/17 00:15:24;;;;;;;10.93;5.03;;;;;;;-148.88;100.00;74136.34;5067482;28;20390;-82
2023/01/17 00:17:51;;;;;;;10.20;5.15;;;;;;;-148.88;100.00;74130.25;5064868;28;20044;-83
2023/01/17 00:26:02;;;;;;;8.93;4.72;;;;;;;-148.88;100.00;74148.53;5036176;28;20095;-84
2023/01/17 01:35:22;;;;;;;;;;;;;;;-148.88;100.00;74241.94;5056801;28;20099;-82
2023/01/17 01:37:48;;;;;;;6.80;3.50;;;;;;;-148.88;100.00;74243.97;5056910;28;19908;-83
2023/01/17 01:40:15;;;;;;;5.60;2.97;;;;;;;-148.88;100.00;74246.00;5057318;28;20151;-82
2023/01/17 01:42:52;;;;;;;5.88;3.00;;;;;;;-148.88;100.00;74237.88;5072590;28;20033;-82
2023/01/17 01:45:24;;;;;;;5.55;3.00;;;;;;;-148.88;100.00;74239.91;5057270;28;20025;-82
2023/01/17 01:47:53;;;;;;;5.72;3.05;;;;;;;-148.88;100.00;74237.88;5058112;28;20025;-82
2023/01/17 01:50:20;;;;;;;5.43;2.70;;;;;;;-148.88;100.00;74237.88;5057791;28;20109;-82
2023/01/17 01:52:50;;;;;;;3.85;1.80;;;;;;;-148.88;100.00;74248.00;5056587;28;20017;-80
2023/01/17 01:55:24;;;;;;;4.78;2.20;;;;;;;-148.88;100.00;74235.84;5073269;28;20057;-81
2023/01/17 01:57:53;;;;;;;4.93;2.78;;;;;;;-148.88;100.00;74248.00;5073114;28;20024;-82
2023/01/17 02:00:23;;;;;;;4.55;2.10;;;;;;;-148.88;100.00;74246.00;5055992;28;20029;-81
2023/01/17 02:02:50;;;;;;;4.20;2.40;;;;;;;-148.88;100.00;74256.13;5070469;28;20025;-82
2023/01/17 02:05:18;;;;;;;5.68;3.03;;;;;;;-148.88;100.00;74254.09;5071359;28;20443;-82
2023/01/17 02:07:50;;;;;;;5.35;2.88;;;;;;;-148.88;100.00;74262.22;5057511;28;20113;-82
2023/01/17 02:10:15;;;;;;;5.03;2.45;;;;;;;-148.88;100.00;74270.34;5058393;28;20032;-81
2023/01/17 02:12:41;;;;;;;6.30;3.00;;;;;;;-148.88;100.00;74270.34;5057479;28;20017;-82
2023/01/17 02:15:07;;;;;;;5.65;2.95;;;;;;;-148.88;100.00;74262.22;5057691;28;20021;-82
2023/01/17 02:18:01;;;;;;;7.63;3.30;;;;;;;-148.88;100.00;74274.41;5056864;28;20111;-81
2023/01/17 02:20:57;;;;;;;6.80;3.22;;;;;;;-148.88;100.00;74280.50;5057262;28;20075;-82
2023/01/17 02:23:43;;;;;;;7.05;3.67;;;;;;;-148.88;100.00;74276.44;5021583;28;20056;-81
2023/01/17 02:26:55;;;;;;;8.60;3.72;;;;;;;-148.88;100.00;74270.34;5072392;28;20029;-82
2023/01/17 02:30:00;;;;;;;8.02;4.53;;;;;;;-148.88;100.00;74276.44;5012205;28;20045;-82
2023/01/17 02:33:08;;;;;;;6.60;3.53;;;;;;;-148.88;100.00;74274.41;5072769;28;20021;-82
2023/01/17 02:35:47;;;;;;;7.15;4.03;;;;;;;-148.88;100.00;74268.31;5056873;28;20418;-81
2023/01/17 02:38:24;;;;;;;7.90;4.10;;;;;;;-148.88;100.00;74266.28;5057346;28;20028;-81
2023/01/17 02:41:21;;;;;;;7.88;4.07;;;;;;;-148.88;100.00;74274.41;5056829;28;20510;-82
2023/01/17 02:43:51;;;;;;;7.10;3.70;;;;;;;-148.88;100.00;74270.34;5056580;28;20041;-82
2023/01/17 02:46:16;;;;;;;7.40;3.42;;;;;;;-148.88;100.00;74276.44;5055736;28;20028;-82
2023/01/17 02:48:43;;;;;;;5.25;3.03;;;;;;;-148.88;100.00;74286.59;5057049;28;20035;-82
2023/01/17 02:51:20;;;;;;;6.05;2.90;;;;;;;-148.88;100.00;74300.81;5074114;28;20017;-82
2023/01/17 02:54:02;;;;;;;4.72;3.08;;;;;;;-148.88;100.00;74286.59;5057251;28;20032;-82
2023/01/17 02:57:05;;;;;;;3.67;2.47;;;;;;;-148.88;100.00;74280.50;5071439;28;20027;-82
2023/01/17 02:59:55;;;;;;;5.28;2.88;;;;;;;-148.88;100.00;74296.75;5056818;28;20056;-82
2023/01/17 03:02:38;;;;;;;4.78;2.47;;;;;;;-148.88;100.00;74302.84;5071934;28;20395;-82
2023/01/17 03:05:16;;;;;;;3.55;2.22;;;;;;;-148.88;100.00;74306.91;5056546;28;20056;-83
2023/01/17 03:07:43;;;;;;;3.95;1.98;;;;;;;-148.88;100.00;74310.97;5055347;28;20369;-82
2023/01/17 03:10:11;;;;;;;3.75;1.80;;;;;;;-148.88;100.00;74323.16;5056151;28;20078;-82
2023/01/17 03:12:39;;;;;;;2.30;1.50;;;;;;;-148.88;100.00;74315.03;5057221;28;20051;-82
2023/01/17 03:15:10;;;;;;;3.42;1.45;;;;;;;-148.88;100.00;74325.19;5057277;28;20021;-82
2023/01/17 03:17:39;;;;;;;3.42;1.48;;;;;;;-148.88;100.00;74335.31;5057541;28;20025;-82
2023/01/17 03:20:04;;;;;;;2.25;1.20;;;;;;;-148.88;100.00;74345.47;5072860;28;20383;-83
2023/01/17 03:22:30;;;;;;;2.50;1.27;;;;;;;-148.88;100.00;74347.50;5056123;28;20509;-82
2023/01/17 03:24:55;;;;;;;2.75;1.13;;;;;;;-148.88;100.00;74355.63;5057143;28;20036;-82
2023/01/17 03:27:20;;;;;;;2.45;0.98;;;;;;;-148.88;100.00;74375.94;5072002;28;20021;-82
2023/01/17 03:29:45;;;;;;;1.70;0.88;;;;;;;-148.88;100.00;74367.81;5056530;28;20021;-82
2023/01/17 03:32:11;;;;;;;2.03;1.10;;;;;;;-148.88;100.00;74384.06;5056351;28;20096;-82
2023/01/17 03:34:36;;;;;;;1.05;0.63;;;;;;;-148.88;100.00;74384.06;5071852;28;20119;-82
2023/01/17 03:37:01;;;;;;;1.05;0.60;;;;;;;-148.88;100.00;74396.25;5072334;28;20086;-82
2023/01/17 03:39:26;;;;;;;2.45;0.93;;;;;;;-148.88;100.00;74392.19;5057592;28;20060;-82
2023/01/17 03:41:52;;;;;;;1.55;0.85;;;;;;;-148.88;100.00;74408.44;5057585;28;20399;-82
2023/01/17 03:44:17;;;;;;;2.25;0.80;;;;;;;-148.88;100.00;74402.34;5072425;28;20028;-82
2023/01/17 03:46:43;;;;;;;1.10;0.60;;;;;;;-148.88;100.00;74410.47;5072379;28;20025;-83
2023/01/17 03:49:08;;;;;;;1.15;0.40;;;;;;;-148.88;100.00;74422.63;5055304;28;20021;-82
2023/01/17 03:51:34;;;;;;;1.75;0.63;;;;;;;-148.88;100.00;74438.88;5072644;28;20025;-81
2023/01/17 03:53:59;;;;;;;0.85;0.50;;;;;;;-148.88;100.00;74436.84;5071426;28;20028;-81
2023/01/17 03:56:24;;;;;;;0.98;0.52;;;;;;;-148.88;100.00;74438.88;5056620;28;20028;-81
2023/01/17 03:58:50;;;;;;;4.13;0.63;;;;;;;-148.88;100.00;74469.34;5057635;28;20032;-81
2023/01/17 04:01:15;;;;;;;1.50;0.55;;;;;;;-148.88;100.00;74493.72;5056852;28;20039;-81
2023/01/17 04:03:41;;;;;;;1.58;0.63;;;;;;;-148.88;100.00;74487.63;5057589;28;20021;-81
2023/01/17 04:06:06;;;;;;;0.88;0.47;;;;;;;-148.88;100.00;74497.78;5056543;28;20020;-82
2023/01/17 04:08:32;;;;;;;1.30;0.57;;;;;;;-148.88;100.00;74497.78;5073413;28;20115;-82
2023/01/17 04:10:57;;;;;;;0.60;0.47;;;;;;;-148.88;100.00;74509.94;5060371;28;20383;-81
2023/01/17 04:13:22;;;;;;;1.20;0.50;;;;;;;-148.88;100.00;74530.25;5060179;28;20029;-82
2023/01/17 04:15:49;;;;;;;2.95;0.95;;;;;;;-148.88;100.00;74540.41;5075480;28;20040;-81
2023/01/17 04:18:19;;;;;;;2.15;0.43;;;;;;;-148.88;100.00;74542.44;5059512;28;20020;-82
2023/01/17 04:20:45;;;;;;;0.45;0.20;;;;;;;-148.88;100.00;74566.81;5060436;28;20175;-82
2023/01/17 04:23:10;;;;;;;0.43;0.20;;;;;;;-148.88;100.00;74585.09;5060007;28;20028;-81
2023/01/17 04:25:36;;;;;;;0.88;0.13;;;;;;;-148.88;100.00;74607.41;5058499;28;20120;-81
2023/01/17 04:28:03;;;;;;;0.10;0.10;;;;;;;-148.88;100.00;74635.84;5059077;28;20111;-82
2023/01/17 04:30:29;;;;;;;0.32;0.20;;;;;;;-148.88;100.00;74658.19;5061516;28;20025;-79
2023/01/17 04:32:55;;;;;;;0.20;0.17;;;;;;;-148.88;100.00;74664.28;5060908;28;20025;-82
2023/01/17 04:35:20;;;;;;;0.75;0.28;;;;;;;-148.88;100.00;74656.16;5058488;28;20403;-82
2023/01/17 04:37:46;;;;;;;2.53;0.30;;;;;;;-148.88;100.00;74654.13;5059741;28;20468;-82
2023/01/17 04:40:11;;;;;;;0.50;0.30;;;;;;;-148.88;100.00;74668.34;5059425;28;20033;-82
2023/01/17 04:42:37;;;;;;;0.50;0.22;;;;;;;-148.88;100.00;74670.38;5059785;28;20036;-82
2023/01/17 04:45:03;;;;;;;0.43;0.30;;;;;;;-148.88;100.00;74698.78;5075430;28;20032;-82
2023/01/17 04:47:29;;;;;;;0.63;0.35;;;;;;;-148.88;100.00;74684.59;5074435;28;20024;-81
2023/01/17 04:49:54;;;;;;;0.45;0.20;;;;;;;-148.88;100.00;74688.66;5075080;28;20029;-81
2023/01/17 04:52:22;;;;;;;0.32;0.20;;;;;;;-148.88;100.00;74700.84;5059525;28;20035;-81
2023/01/17 04:54:50;;;;;;;0.30;0.20;;;;;;;-148.88;100.00;74708.94;5058909;28;20083;-82
2023/01/17 04:57:16;;;;;;;1.10;0.40;;;;;;;-148.88;100.00;74735.34;5075070;28;20116;-81
2023/01/17 04:59:43;;;;;;;2.00;0.32;;;;;;;-148.88;100.00;74773.94;5058273;28;20024;-81
2023/01/17 05:02:08;;;;;;;0.60;0.40;;;;;;;-148.88;100.00;74757.69;5059185;28;20025;-81
2023/01/17 05:04:34;;;;;;;0.77;0.38;;;;;;;-148.88;100.00;74778.00;5057116;28;20017;-81
2023/01/17 05:06:59;;;;;;;0.60;0.40;;;;;;;-148.88;100.00;74767.84;5059066;28;20029;-80
2023/01/17 05:09:24;;;;;;;0.52;0.40;;;;;;;-148.88;100.00;74796.28;5073006;28;20025;-81
2023/01/17 05:11:50;;;;;;;2.30;0.60;;;;;;;-148.88;100.00;74814.53;5057852;28;20025;-80
2023/01/17 05:14:15;;;;;;;2.08;0.60;;;;;;;-148.88;100.00;74814.53;5057903;28;20554;-81
2023/01/17 05:16:40;;;;;;;0.95;0.50;;;;;;;-148.88;100.00;74822.66;5055841;28;20021;-81
2023/01/17 05:19:06;;;;;;;1.98;0.80;;;;;;;-148.88;100.00;74806.44;5073016;28;20020;-81
2023/01/17 05:21:31;;;;;;;1.50;0.60;;;;;;;-148.88;100.00;74818.59;5057473;28;20021;-81
2023/01/17 05:23:56;;;;;;;1.88;0.80;;;;;;;-148.88;100.00;74802.38;5072897;28;20463;-80
2023/01/17 05:26:22;;;;;;;2.97;1.05;;;;;;;-148.88;100.00;74806.44;5058302;28;20021;-81
2023/01/17 05:28:47;;;;;;;2.17;0.77;;;;;;;-148.88;100.00;74810.50;5056122;28;20402;-80
2023/01/17 05:31:12;;;;;;;1.58;0.75;;;;;;;-148.88;100.00;74816.56;5072858;28;20024;-81
2023/01/17 05:33:38;;;;;;;1.17;0.57;;;;;;;-148.88;100.00;74822.66;5058116;28;20390;-80
2023/01/17 05:36:03;;;;;;;5.30;0.90;;;;;;;-148.88;100.00;74816.56;5055862;28;20040;-80
2023/01/17 05:38:28;;;;;;;0.90;0.40;;;;;;;-148.88;100.00;74822.66;5056458;28;20020;-81
2023/01/17 05:40:54;;;;;;;1.67;0.70;;;;;;;-148.88;100.00;74824.69;5055014;28;20391;-80
2023/01/17 05:43:20;;;;;;;0.95;0.50;;;;;;;-148.88;100.00;74838.91;5054627;28;20029;-80
2023/01/17 05:45:47;;;;;;;1.70;0.90;;;;;;;-148.88;100.00;74859.22;5055081;28;20073;-80
2023/01/17 05:48:12;;;;;;;5.07;2.78;;;;;;;-148.88;100.00;74851.09;5073384;28;20024;-81
2023/01/17 05:50:38;;;;;;;2.33;1.40;;;;;;;-148.88;100.00;74859.22;5060979;28;20035;-81
2023/01/17 05:53:08;;;;;;;1.02;0.60;;;;;;;-148.88;100.00;74865.31;5059698;28;20021;-81
2023/01/17 05:55:35;;;;;;;1.17;0.68;;;;;;;-148.88;100.00;74871.41;5058669;28;20037;-81
2023/01/17 05:58:01;;;;;;;0.40;0.30;;;;;;;-148.88;100.00;74863.28;5058609;28;20025;-81
2023/01/17 06:00:26;;;;;;;0.63;0.38;;;;;;;-148.88;100.00;74869.38;5057539;28;20035;-81
2023/01/17 06:02:54;;;;;;;0.65;0.30;;;;;;;-148.88;100.00;74867.34;5057726;28;20484;-81
2023/01/17 06:05:21;;;;;;;5.40;0.50;;;;;;;-148.88;100.00;74865.31;5056572;28;20021;-81
2023/01/17 06:07:47;;;;;;;2.70;0.82;;;;;;;-148.88;100.00;74863.28;5072919;28;20037;-81
2023/01/17 06:10:13;;;;;;;2.30;1.13;;;;;;;-148.88;100.00;74867.34;5056289;28;20025;-82
2023/01/17 06:12:40;;;;;;;4.50;0.90;;;;;;;-148.88;100.00;74863.28;5058065;28;20024;-81
2023/01/17 06:15:06;;;;;;;4.07;1.02;;;;;;;-148.88;100.00;74867.34;5072592;28;20029;-83
2023/01/17 06:17:31;;;;;;;1.30;0.70;;;;;;;-148.88;100.00;74865.31;5056105;28;20158;-83
2023/01/17 06:19:56;;;;;;;3.30;1.00;;;;;;;-148.88;100.00;74871.41;5070778;28;20056;-81
2023/01/17 06:22:22;;;;;;;1.25;0.70;;;;;;;-148.88;100.00;74871.41;5056107;28;20107;-81
2023/01/17 06:24:47;;;;;;;2.25;0.90;;;;;;;-148.88;100.00;74871.41;5055873;28;20021;-82
2023/01/17 06:27:12;;;;;;;1.70;0.73;;;;;;;-148.88;100.00;74871.41;5071083;28;20028;-81
2023/01/17 06:29:37;;;;;;;3.53;0.90;;;;;;;-148.88;100.00;74875.47;5071746;28;20562;-82
2023/01/17 06:32:03;;;;;;;5.50;1.10;;;;;;;-148.88;100.00;74865.31;5053782;28;20024;-81
2023/01/17 06:34:29;;;;;;;1.50;0.90;;;;;;;-148.88;100.00;74873.44;5056037;28;20025;-81
2023/01/17 06:36:54;;;;;;;4.60;1.23;;;;;;;-148.88;100.00;74873.44;5071204;28;20541;-82
2023/01/17 06:39:19;;;;;;;4.95;1.00;;;;;;;-148.88;100.00;74865.31;5071492;28;20060;-80
2023/01/17 06:41:44;;;;;;;2.17;1.17;;;;;;;-148.88;100.00;74863.28;5056175;28;20024;-80
2023/01/17 06:44:10;;;;;;;2.80;0.90;;;;;;;-148.88;100.00;74861.25;5055361;28;20032;-81
2023/01/17 06:46:35;;;;;;;6.53;1.20;;;;;;;-148.88;100.00;74863.28;5059340;28;20048;-82
2023/01/17 06:49:01;;;;;;;3.17;1.08;;;;;;;-148.88;100.00;74873.44;5077991;28;20034;-83
2023/01/17 06:51:26;;;;;;;2.30;1.17;;;;;;;-148.88;100.00;74879.53;5061923;28;20021;-83
2023/01/17 06:53:52;;;;;;;5.78;1.33;;;;;;;-148.88;100.00;74887.66;5054494;28;20547;-81
2023/01/17 06:56:17;;;;;;;2.95;1.05;;;;;;;-148.88;100.00;74893.75;5054559;28;20036;-81
2023/01/17 06:58:43;;;;;;;2.03;0.90;;;;;;;-148.88;100.00;74907.97;5057299;28;20025;-82
2023/01/17 07:01:09;;;;;;;2.13;1.20;;;;;;;-148.88;100.00;74907.97;5057804;28;20084;-83
2023/01/17 07:03:35;;;;;;;3.15;1.05;;;;;;;-148.88;100.00;74912.03;5056153;28;20029;-83
2023/01/17 07:06:01;;;;;;;4.18;1.13;;;;;;;-148.88;100.00;74920.16;5057374;28;20028;-82
2023/01/17 07:08:27;;;;;;;7.88;1.30;;;;;;;-148.88;100.00;74916.09;5057599;28;20025;-83
2023/01/17 07:10:58;;;;;;;4.65;1.27;;;;;;;-148.88;100.00;74920.16;5057219;28;20131;-83
2023/01/17 07:13:24;;;;;;;3.72;1.33;;;;;;;-148.88;100.00;74918.13;5073811;28;20123;-82
2023/01/17 07:15:49;;;;;;;2.60;1.20;;;;;;;-148.88;100.00;74910.00;5057036;28;20443;-83
2023/01/17 07:18:19;;;;;;;4.57;1.65;;;;;;;-148.88;100.00;74907.97;5072610;28;20033;-83
2023/01/17 07:20:44;;;;;;;3.13;1.05;;;;;;;-148.88;100.00;74903.91;5071969;28;20072;-85
2023/01/17 07:23:10;;;;;;;6.13;1.60;;;;;;;-148.88;100.00;74912.03;5055588;28;20025;-83
2023/01/17 07:25:35;;;;;;;4.43;1.55;;;;;;;-148.88;100.00;74912.03;5054945;28;20020;-83
2023/01/17 07:28:01;;;;;;;6.13;1.42;;;;;;;-148.88;100.00;74916.09;5056617;28;20033;-83
2023/01/17 07:30:26;;;;;;;7.13;2.08;;;;;;;-148.88;100.00;74916.09;5069443;28;20033;-82
2023/01/17 07:32:53;;;;;;;5.82;1.65;;;;;;;-148.88;100.00;74924.22;5052512;28;20081;-84
2023/01/17 07:35:18;;;;;;;9.75;2.13;;;;;;;-148.88;100.00;74930.31;5053030;28;20032;-86
2023/01/17 07:37:50;;;;;;;5.05;1.75;;;;;;;-148.88;100.00;74928.28;5054137;28;20442;-84
2023/01/17 07:40:16;;;;;;;3.80;1.58;;;;;;;-148.88;100.00;74910.00;5057104;28;20032;-81
2023/01/17 07:42:43;;;;;;;12.70;4.30;;;;;;;-148.88;100.00;74932.34;5072449;28;20039;-84
2023/01/17 07:45:09;;;;;;;4.85;2.42;;;;;;;-148.88;100.00;74918.13;5074231;28;20442;-82
2023/01/17 07:47:35;;;;;;;6.95;3.50;;;;;;;-148.88;100.00;74920.16;5058721;28;20024;-84
2023/01/17 07:50:00;;;;;;;4.47;1.67;;;;;;;-148.88;100.00;74912.03;5058761;28;20028;-83
2023/01/17 07:52:26;;;;;;;4.50;1.75;;;;;;;-148.88;100.00;74938.44;5058724;28;20108;-82
2023/01/17 07:54:52;;;;;;;12.00;1.98;;;;;;;-148.88;100.00;74940.47;5059620;28;20472;-86
2023/01/17 07:57:17;;;;;;;6.53;3.17;;;;;;;-148.88;100.00;74934.38;5075906;28;20056;-80
2023/01/17 07:59:42;;;;;;;6.15;1.92;;;;;;;-148.88;100.00;74940.47;5059770;28;20025;-83
2023/01/17 08:02:18;;;;;;;8.73;2.22;;;;;;;-148.88;100.00;74960.75;5075190;28;20021;-83
2023/01/17 08:04:44;;;;;;;7.72;1.98;;;;;;;-148.88;100.00;74956.69;5074702;28;20032;-83
2023/01/17 08:07:10;;;;;;;5.18;1.98;;;;;;;-148.88;100.00;74968.88;5057149;28;20043;-82
2023/01/17 08:09:35;;;;;;;5.47;2.22;;;;;;;-148.88;100.00;74974.97;5057282;28;20096;-82
2023/01/17 08:12:01;;;;;;;6.55;2.85;;;;;;;-148.88;100.00;74981.06;5056699;28;20025;-84
2023/01/17 08:14:26;;;;;;;9.95;2.08;;;;;;;-148.88;100.00;74979.03;5051270;28;20017;-83
2023/01/17 08:16:52;;;;;;;5.28;2.00;;;;;;;-148.88;100.00;74972.94;5056499;28;20047;-82
2023/01/17 08:19:17;;;;;;;5.68;2.55;;;;;;;-148.88;100.00;74981.06;5056966;28;20110;-83
2023/01/17 08:21:42;;;;;;;7.53;2.38;;;;;;;-148.88;100.00;74981.06;5058201;28;20352;-83
2023/01/17 08:24:12;;;;;;;6.22;2.00;;;;;;;-148.88;100.00;74991.22;5058852;28;20395;-84
2023/01/17 08:26:38;;;;;;;5.45;2.10;;;;;;;-148.88;100.00;74989.19;5059433;28;20025;-83
2023/01/17 08:29:04;;;;;;;7.63;2.47;;;;;;;-148.88;100.00;74985.13;5057580;28;20530;-84
2023/01/17 08:31:32;;;;;;;7.47;2.50;;;;;;;-148.88;100.00;74991.22;5058894;28;20029;-83
2023/01/17 08:33:57;;;;;;;6.45;2.22;;;;;;;-148.88;100.00;74999.34;5059003;28;20486;-83
2023/01/17 08:36:24;;;;;;;5.18;2.30;;;;;;;-148.88;100.00;74989.19;5059182;28;20040;-83
2023/01/17 08:38:51;;;;;;;9.57;2.60;;;;;;;-148.88;100.00;74983.09;5057568;28;20054;-82
2023/01/17 08:41:20;;;;;;;5.07;2.47;;;;;;;-148.88;100.00;74985.13;5057127;28;20025;-84
2023/01/17 08:43:47;;;;;;;8.75;1.83;;;;;;;-148.88;100.00;74972.94;5053013;28;20021;-82
2023/01/17 08:46:13;;;;;;;6.38;2.50;;;;;;;-148.88;100.00;74985.13;5056612;28;20029;-82
2023/01/17 08:48:38;;;;;;;5.65;2.15;;;;;;;-148.88;100.00;74974.97;5056925;28;20032;-83
2023/01/17 08:51:03;;;;;;;10.85;2.35;;;;;;;-148.88;100.00;74985.13;5058195;28;20029;-83
2023/01/17 08:53:29;;;;;;;8.10;3.08;;;;;;;-148.88;100.00;74960.75;5056187;28;20522;-83
2023/01/17 08:55:58;;;;;;;7.82;2.70;;;;;;;-148.88;100.00;74958.72;5058189;28;20514;-83
2023/01/17 08:58:25;;;;;;;5.63;2.63;;;;;;;-148.88;100.00;74977.00;5052642;28;21220;-83
2023/01/17 09:00:51;;;;;;;7.15;3.10;;;;;;;-148.88;100.00;74983.09;5040993;28;20048;-82
2023/01/17 09:03:16;;;;;;;7.32;2.65;;;;;;;-148.88;100.00;74960.75;5041809;28;20037;-83
2023/01/17 09:05:41;;;;;;;11.07;2.40;;;;;;;-148.88;100.00;74968.88;5037951;28;20120;-83
2023/01/17 09:08:06;;;;;;;9.95;2.88;;;;;;;-148.88;100.00;74979.03;5038753;28;20079;-84
2023/01/17 09:10:32;;;;;;;7.03;2.80;;;;;;;-148.88;100.00;74968.88;5039790;28;20029;-84
2023/01/17 09:12:57;;;;;;;7.47;3.08;;;;;;;-148.88;100.00;74962.78;5036614;28;20085;-84
2023/01/17 09:15:23;;;;;;;6.13;2.45;;;;;;;-148.88;100.00;74968.88;5039314;28;20030;-84
2023/01/17 09:17:48;;;;;;;6.20;2.65;;;;;;;-148.88;100.00;74981.06;5039646;28;20372;-82
2023/01/17 09:20:14;;;;;;;6.53;2.55;;;;;;;-148.88;100.00;74972.94;5035591;28;20021;-83
2023/01/17 09:22:41;;;;;;;7.50;3.08;;;;;;;-148.88;100.00;74954.66;5037037;28;20392;-83
2023/01/17 09:25:07;;;;;;;6.20;3.08;;;;;;;-148.88;100.00;74964.81;5051560;28;20028;-83
2023/01/17 09:27:32;;;;;;;10.27;3.38;;;;;;;-148.88;100.00;74964.81;5059150;28;20029;-83
2023/01/17 09:29:57;;;;;;;7.07;2.70;;;;;;;-148.88;100.00;74952.63;5057814;28;20391;-83
2023/01/17 09:32:23;;;;;;;6.82;3.80;;;;;;;-148.88;100.00;74954.66;5058382;28;20032;-84
2023/01/17 09:34:48;;;;;;;6.72;2.65;;;;;;;-148.88;100.00;74964.81;5058470;28;20083;-83
2023/01/17 09:37:13;;;;;;;6.82;3.22;;;;;;;-148.88;100.00;74964.81;5058235;28;20079;-83
2023/01/17 09:39:39;;;;;;;8.65;3.03;;;;;;;-148.88;100.00;74960.75;5057018;28;20408;-83
2023/01/17 09:42:38;;;;;;;7.38;2.50;;;;;;;-148.88;100.00;74950.59;5058278;28;20021;-82
2023/01/17 09:45:08;;;;;;;13.63;3.38;;;;;;;-148.88;100.00;74952.63;5057809;28;20071;-82
2023/01/17 09:47:42;;;;;;;5.15;2.70;;;;;;;-148.88;100.00;74960.75;5056838;28;20391;-82
2023/01/17 09:50:29;;;;;;;5.88;2.42;;;;;;;-148.88;100.00;74950.59;5058513;28;20033;-83
2023/01/17 09:53:00;;;;;;;4.22;2.20;;;;;;;-148.88;100.00;74956.69;5058039;28;20035;-83
2023/01/17 09:55:32;;;;;;;5.63;2.90;;;;;;;-148.88;100.00;74948.56;5055978;28;20476;-82
2023/01/17 09:58:07;;;;;;;11.52;2.28;;;;;;;-148.88;100.00;74944.53;5056055;28;20485;-83
2023/01/17 10:01:06;;;;;;;6.45;2.70;;;;;;;-148.88;100.00;74928.28;5056687;28;20479;-82
2023/01/17 10:04:07;;;;;;;5.82;2.42;;;;;;;-148.88;100.00;74928.28;5055594;28;20119;-82
2023/01/17 10:06:44;;;;;;;5.50;2.50;;;;;;;-148.88;100.00;74926.25;5055965;28;20024;-83
2023/01/17 10:09:25;;;;;;;4.47;2.28;;;;;;;-148.88;100.00;74926.25;5057420;28;20052;-83
2023/01/17 10:12:08;;;;;;;4.47;2.20;;;;;;;-148.88;100.00;74946.53;5055470;28;20036;-83
2023/01/17 10:14:49;;;;;;;8.60;2.72;;;;;;;-148.88;100.00;74950.59;5057459;28;20025;-82
2023/01/17 10:17:35;;;;;;;7.32;2.45;;;;;;;-148.88;100.00;74948.56;5057756;28;20041;-83
2023/01/17 10:20:14;;;;;;;6.10;2.10;;;;;;;-148.88;100.00;74920.16;5057670;28;20120;-82
2023/01/17 10:23:10;;;;;;;7.32;2.50;;;;;;;-148.88;100.00;74910.00;5057596;28;20052;-83
2023/01/17 10:25:59;;;;;;;7.78;2.47;;;;;;;-148.88;100.00;74903.91;5048835;28;20055;-82
2023/01/17 10:28:39;;;;;;;7.10;2.72;;;;;;;-148.88;100.00;74887.66;5058556;28;20060;-83
2023/01/17 10:31:09;;;;;;;5.32;2.60;;;;;;;-148.88;100.00;74887.66;5056583;28;20371;-82
2023/01/17 10:33:48;;;;;;;6.35;1.90;;;;;;;-148.88;100.00;74912.03;5055035;28;20031;-83
2023/01/17 10:36:26;;;;;;;5.38;2.13;;;;;;;-148.88;100.00;74930.31;5055148;28;20063;-82
2023/01/17 10:38:59;;;;;;;5.70;2.08;;;;;;;-148.88;100.00;74936.41;5055703;28;20075;-81
2023/01/17 10:41:41;;;;;;;6.95;3.10;;;;;;;-148.88;100.00;74922.19;5054821;28;20128;-82
2023/01/17 10:44:26;;;;;;;10.32;2.30;;;;;;;-148.88;100.00;74881.56;5056185;28;20068;-83
2023/01/17 10:47:13;;;;;;;7.63;3.17;;;;;;;-148.88;100.00;74855.16;5045181;28;20120;-83
2023/01/17 10:49:43;;;;;;;5.88;2.35;;;;;;;-148.88;100.00;74847.03;5055335;28;20025;-82
2023/01/17 10:52:11;;;;;;;8.95;2.97;;;;;;;-148.88;100.00;74867.34;5055717;28;20032;-83
2023/01/17 10:54:49;;;;;;;12.52;3.17;;;;;;;-148.88;100.00;74840.94;5055941;28;20379;-83
2023/01/17 10:57:23;;;;;;;6.43;2.72;;;;;;;-148.88;100.00;74822.66;5055705;28;20124;-83
2023/01/17 10:59:50;;;;;;;4.95;2.38;;;;;;;-148.88;100.00;74794.25;5055248;28;20025;-82
2023/01/17 11:02:31;;;;;;;9.00;3.03;;;;;;;-148.88;100.00;74798.31;5055397;28;20471;-83
2023/01/17 11:05:02;;;;;;;6.22;2.72;;;;;;;-148.88;99.90;74773.94;5054977;28;20032;-82
2023/01/17 11:07:28;;;;;;;10.77;3.08;;;;;;;-148.88;99.50;74792.22;5056479;28;20438;-82
2023/01/17 11:09:56;;;;;;;8.90;3.45;;;;;;;-148.88;98.37;74786.13;5054159;28;20021;-82
2023/01/17 11:12:39;;;;;;;6.00;2.75;;;;;;;-148.88;97.39;74796.28;5054593;28;20326;-82
2023/01/17 11:15:21;;;;;;;10.00;3.05;;;;;;;-148.88;98.21;74822.66;5053904;28;20036;-82
2023/01/17 11:17:51;;;;;;;10.75;2.90;;;;;;;-148.88;97.44;74828.75;5056101;28;20434;-81
2023/01/17 11:20:18;;;;;;;8.48;3.00;;;;;;;-148.88;96.47;74810.50;5059687;28;20033;-82
2023/01/17 11:23:00;;;;;;;9.07;3.30;;;;;;;-148.88;97.55;74822.66;5059240;28;20035;-82
2023/01/17 11:25:26;;;;;;;8.85;3.65;;;;;;;-148.88;97.84;74851.09;5059736;28;20028;-83
2023/01/17 11:28:16;;;;;;;7.20;2.80;;;;;;;-148.88;99.44;74851.09;5060005;28;20025;-83
2023/01/17 11:30:54;;;;;;;7.40;3.20;;;;;;;-148.88;97.34;74863.28;5060706;28;20025;-83
2023/01/17 11:33:55;;;;;;;10.73;3.30;;;;;;;-148.88;97.89;74851.09;5059709;28;20104;-83
2023/01/17 11:36:29;;;;;;;8.10;3.38;;;;;;;-148.88;100.00;74887.66;5060804;28;20028;-83
2023/01/17 11:38:56;;;;;;;;;;;;;;;-148.88;100.00;74871.41;5059445;28;20033;-82
2023/01/17 11:41:22;;;;;;;10.93;3.67;;;;;;;-148.88;99.58;74842.97;5060970;28;20397;-82
2023/01/17 11:43:56;;;;;;;13.10;3.38;;;;;;;-148.88;98.31;74857.19;5070404;28;20051;-83
2023/01/17 11:46:22;;;;;;;8.48;3.50;;;;;;;-148.88;98.78;74871.41;5077828;28;20037;-82
2023/01/17 11:48:56;;;;;;;8.07;3.40;;;;;;;-148.88;99.88;74875.47;5062917;28;20025;-83
2023/01/17 11:51:28;;;;;;;8.60;3.28;;;;;;;-148.88;98.91;74871.41;5063960;28;20021;-83
2023/01/17 11:54:06;;;;;;;10.13;3.47;;;;;;;-148.88;100.00;74840.94;5060908;28;20108;-83
2023/01/17 11:56:35;;;;;;;9.73;4.35;;;;;;;-148.88;100.00;74806.44;5060170;28;20025;-83
2023/01/17 11:59:26;;;;;;;10.68;5.00;;;;;;;-148.88;97.90;74796.28;5059803;28;20043;-83
2023/01/17 12:02:11;;;;;;;11.32;4.45;;;;;;;-148.88;99.75;74808.47;5050448;28;20457;-83
2023/01/17 12:04:47;;;;;;;9.60;4.15;;;;;;;-148.88;98.78;74798.31;5060764;28;20436;-82
2023/01/17 12:07:22;;;;;;;10.05;4.68;;;;;;;-148.88;98.36;74796.28;5059400;28;20026;-82
2023/01/17 12:10:12;;;;;;;13.45;5.28;;;;;;;-148.88;96.30;74798.31;5058861;28;20368;-83
2023/01/17 12:16:31;;;;;;;10.18;3.95;;;;;;;-148.88;96.52;74769.88;5060143;28;20074;-82
2023/01/17 12:19:15;;;;;;;13.52;5.38;;;;;;;-148.88;97.85;74723.16;5016980;28;20036;-83
2023/01/17 12:22:12;;;;;;;11.63;4.18;;;;;;;-148.88;93.58;74761.75;5059098;28;20025;-82
2023/01/17 12:24:58;;;;;;;9.00;4.43;;;;;;;-148.88;94.07;74723.16;5057046;28;20047;-82
2023/01/17 12:27:41;;;;;;;12.52;5.00;;;;;;;-148.88;94.48;74759.72;5058437;28;20024;-83
2023/01/17 12:30:26;;;;;;;9.75;5.18;;;;;;;-148.88;92.60;74765.81;5057611;28;20027;-82
2023/01/17 12:33:28;;;;;;;10.35;5.03;;;;;;;-148.88;92.76;74731.28;5059573;28;20021;-83
2023/01/17 12:36:01;;;;;;;9.73;5.15;;;;;;;-148.88;93.16;74796.28;5073776;22;20052;-83
2023/01/17 12:38:38;;;;;;;8.55;4.45;;;;;;;-148.88;95.34;74778.00;5044813;28;20480;-83
2023/01/17 12:41:14;;;;;;;12.27;5.28;;;;;;;-148.88;94.77;74759.72;5042479;28;20056;-82
2023/01/17 12:43:40;;;;;;;11.25;4.80;;;;;;;-148.88;93.27;74771.91;5063454;28;20014;-83
2023/01/17 12:46:19;;;;;;;11.73;5.28;;;;;;;-148.88;92.24;74769.88;5045183;28;20029;-83